Time;durP1;ratioP1;P1;durP2;ratioP2;P2;SDS_P1;SDS_P2;PMS_P1;PMS_P2;Temp;Humidity;BMP_temperature;BMP_pressure;BME280_temperature;BME280_humidity;BME280_pressure;Samples;Min_cycle;Max_cycle;Signal;HPM_P1;HPM_P2
2021/05/28 00:01:36;;;;;;;1999.90;999.90;;;9.00;99.90;;;;;;5113409;22;20287;-82
2021/05/28 00:04:01;;;;;;;1999.90;999.90;;;9.00;99.90;;;;;;5044414;28;20169;-82
2021/05/28 00:06:28;;;;;;;1999.90;999.90;;;9.00;99.90;;;;;;5044192;28;20238;-82
2021/05/28 00:08:54;;;;;;;1999.90;999.90;;;8.90;99.90;;;;;;5044608;28;20177;-82
2021/05/28 00:11:20;;;;;;;1999.90;999.90;;;8.90;99.90;;;;;;5045001;28;20516;-81
2021/05/28 00:13:45;;;;;;;1999.90;999.90;;;8.90;99.90;;;;;;5047524;28;20165;-82
2021/05/28 00:16:11;;;;;;;1999.90;999.90;;;8.90;99.90;;;;;;5048016;28;20533;-82
2021/05/28 00:18:37;;;;;;;1999.90;999.90;;;8.90;99.90;;;;;;5047180;28;20196;-82
2021/05/28 00:21:03;;;;;;;1999.90;999.90;;;8.90;99.90;;;;;;5047791;28;20221;-81
2021/05/28 00:23:28;;;;;;;1999.90;999.90;;;8.90;99.90;;;;;;5048175;28;20165;-82
2021/05/28 00:25:54;;;;;;;1999.90;999.90;;;8.90;99.90;;;;;;5048223;28;20444;-82
2021/05/28 00:28:20;;;;;;;1999.90;999.90;;;8.90;99.90;;;;;;5047821;28;20208;-82
2021/05/28 00:30:45;;;;;;;1999.90;999.90;;;8.90;99.90;;;;;;5048479;28;20200;-82
2021/05/28 00:33:11;;;;;;;1999.90;999.90;;;8.90;99.90;;;;;;5047975;28;20522;-81
2021/05/28 00:35:37;;;;;;;1999.90;999.90;;;8.90;99.90;;;;;;5047278;28;20168;-81
2021/05/28 00:38:02;;;;;;;1999.90;999.90;;;8.80;99.90;;;;;;5029477;28;20216;-81
2021/05/28 00:40:28;;;;;;;1999.90;999.90;;;8.80;99.90;;;;;;5046840;28;20579;-82
2021/05/28 00:42:54;;;;;;;1999.90;999.90;;;8.90;99.90;;;;;;5029032;28;20188;-82
2021/05/28 00:45:19;;;;;;;1999.90;999.90;;;8.90;99.90;;;;;;5029354;28;20172;-82
2021/05/28 00:47:45;;;;;;;1999.90;999.90;;;9.00;99.90;;;;;;5046370;28;20204;-81
2021/05/28 00:50:11;;;;;;;1999.90;999.90;;;9.00;99.90;;;;;;5028818;28;20177;-82
2021/05/28 00:52:37;;;;;;;1999.90;999.90;;;9.00;99.90;;;;;;5028909;28;20176;-82
2021/05/28 00:55:04;;;;;;;1999.90;999.90;;;9.00;99.90;;;;;;5046661;28;20248;-82
2021/05/28 00:57:30;;;;;;;1999.90;999.90;;;9.00;99.90;;;;;;5046179;28;20224;-81
2021/05/28 00:59:57;;;;;;;1999.90;999.90;;;9.10;99.90;;;;;;5028661;28;20197;-82
2021/05/28 01:02:24;;;;;;;1999.90;999.90;;;9.10;99.90;;;;;;5046227;28;20408;-82
2021/05/28 01:04:50;;;;;;;1999.90;999.90;;;9.10;99.90;;;;;;5028312;28;20192;-82
2021/05/28 01:07:16;;;;;;;1999.90;999.90;;;9.10;99.90;;;;;;5045879;28;20192;-82
2021/05/28 01:09:41;;;;;;;1999.90;999.90;;;9.10;99.90;;;;;;5027961;28;20725;-82
2021/05/28 01:12:07;;;;;;;1999.90;999.90;;;9.20;99.90;;;;;;5045864;28;20166;-81
2021/05/28 01:14:33;;;;;;;1999.90;999.90;;;9.20;99.90;;;;;;5046426;28;20170;-81
2021/05/28 01:16:59;;;;;;;1999.90;999.90;;;9.20;99.90;;;;;;5046952;28;20414;-81
2021/05/28 01:19:26;;;;;;;1999.90;999.90;;;9.20;99.90;;;;;;5046237;28;20196;-81
2021/05/28 01:21:53;;;;;;;1999.90;999.90;;;9.30;99.90;;;;;;5044906;28;20253;-82
2021/05/28 01:24:19;;;;;;;1999.90;999.90;;;9.20;99.90;;;;;;5044884;28;20256;-81
2021/05/28 01:26:45;;;;;;;1999.90;999.90;;;9.10;99.90;;;;;;5045126;28;20220;-82
2021/05/28 01:29:10;;;;;;;1999.90;999.90;;;9.10;99.90;;;;;;5043214;28;20451;-82
2021/05/28 01:31:36;;;;;;;1999.90;999.90;;;9.10;99.90;;;;;;5045621;28;20176;-82
2021/05/28 01:34:03;;;;;;;1999.90;999.90;;;9.10;99.90;;;;;;5046110;28;20157;-82
2021/05/28 01:36:29;;;;;;;1999.90;999.90;;;9.20;99.90;;;;;;5046166;28;20411;-82
2021/05/28 01:38:55;;;;;;;1999.90;999.90;;;9.20;99.90;;;;;;5046179;28;20220;-81
2021/05/28 01:41:21;;;;;;;1999.90;999.90;;;9.30;99.90;;;;;;5045880;28;20176;-82
2021/05/28 01:43:46;;;;;;;1999.90;999.90;;;9.20;99.90;;;;;;5045956;28;20161;-82
2021/05/28 01:46:12;;;;;;;1999.90;999.90;;;9.20;99.90;;;;;;5045592;28;20189;-82
2021/05/28 01:48:40;;;;;;;1999.90;999.90;;;9.20;99.90;;;;;;5045780;28;20212;-82
2021/05/28 01:51:07;;;;;;;1999.90;999.90;;;9.10;99.90;;;;;;5045284;28;20166;-82
2021/05/28 01:53:33;;;;;;;1999.90;999.90;;;9.10;99.90;;;;;;5045860;28;20184;-82
2021/05/28 01:55:58;;;;;;;1999.90;999.90;;;9.00;99.90;;;;;;5045358;28;20161;-82
2021/05/28 01:58:26;;;;;;;1999.90;999.90;;;9.00;99.90;;;;;;5045022;28;20609;-82
2021/05/28 02:00:56;;;;;;;1999.90;999.90;;;9.00;99.90;;;;;;5045340;28;20775;-82
2021/05/28 02:03:21;;;;;;;1999.90;999.90;;;8.90;99.90;;;;;;5046462;28;20220;-82
2021/05/28 02:05:47;;;;;;;1999.90;999.90;;;8.90;99.90;;;;;;5046865;28;20193;-82
2021/05/28 02:08:14;;;;;;;1999.90;999.90;;;8.90;99.90;;;;;;5044887;28;20181;-82
2021/05/28 02:10:40;;;;;;;1999.90;999.90;;;9.00;99.90;;;;;;5028595;28;20196;-82
2021/05/28 02:13:06;;;;;;;1999.90;999.90;;;9.00;99.90;;;;;;5046012;28;20176;-82
2021/05/28 02:15:31;;;;;;;1999.90;999.90;;;9.00;99.90;;;;;;5045746;28;20438;-82
2021/05/28 02:17:57;;;;;;;1999.90;999.90;;;9.00;99.90;;;;;;5045117;28;20416;-82
2021/05/28 02:20:23;;;;;;;1999.90;999.90;;;8.90;99.90;;;;;;5027339;28;20161;-82
2021/05/28 02:22:49;;;;;;;1999.90;999.90;;;8.90;99.90;;;;;;5045126;28;20400;-82
2021/05/28 02:25:16;;;;;;;1999.90;999.90;;;8.90;99.90;;;;;;5044847;28;20663;-82
2021/05/28 02:27:43;;;;;;;1999.90;999.90;;;8.80;99.90;;;;;;5045257;28;20189;-82
2021/05/28 02:30:10;;;;;;;1999.90;999.90;;;8.70;99.90;;;;;;5044359;28;20258;-82
2021/05/28 02:32:35;;;;;;;1999.90;999.90;;;8.70;99.90;;;;;;5028135;28;20205;-81
2021/05/28 02:35:03;;;;;;;1999.90;999.90;;;8.70;99.90;;;;;;5044330;28;20161;-82
2021/05/28 02:37:29;;;;;;;1999.90;999.90;;;8.60;99.90;;;;;;5045433;28;20404;-82
2021/05/28 02:39:55;;;;;;;1999.90;999.90;;;8.50;99.90;;;;;;5045171;28;20231;-82
2021/05/28 02:42:21;;;;;;;1999.90;999.90;;;8.50;99.90;;;;;;5045453;28;20396;-82
2021/05/28 02:44:46;;;;;;;1999.90;999.90;;;8.40;99.90;;;;;;5044625;28;20633;-82
2021/05/28 02:47:12;;;;;;;1999.90;999.90;;;8.30;99.90;;;;;;5045091;28;20185;-82
2021/05/28 02:49:38;;;;;;;1999.90;999.90;;;8.30;99.90;;;;;;5044207;28;20185;-82
2021/05/28 02:52:05;;;;;;;1999.90;999.90;;;8.20;99.90;;;;;;5026460;28;20204;-82
2021/05/28 02:54:31;;;;;;;1999.90;999.90;;;8.20;99.90;;;;;;5044581;28;20157;-82
2021/05/28 02:56:57;;;;;;;1999.90;999.90;;;8.20;99.90;;;;;;5045386;28;20192;-82
2021/05/28 02:59:24;;;;;;;1999.90;999.90;;;8.20;99.90;;;;;;5044369;28;20201;-82
2021/05/28 03:01:50;;;;;;;1999.90;999.90;;;8.10;99.90;;;;;;5043540;28;20204;-82
2021/05/28 03:04:16;;;;;;;1999.90;999.90;;;8.10;99.90;;;;;;5026023;28;20172;-82
2021/05/28 03:06:42;;;;;;;1999.90;999.90;;;8.10;99.90;;;;;;5025509;28;20197;-82
2021/05/28 03:09:08;;;;;;;1999.90;999.90;;;8.00;99.90;;;;;;5043905;28;20185;-82
2021/05/28 03:11:34;;;;;;;1999.90;999.90;;;8.00;99.90;;;;;;5043754;28;20400;-82
2021/05/28 03:14:00;;;;;;;1999.90;999.90;;;8.00;99.90;;;;;;5043285;28;20245;-82
2021/05/28 03:16:26;;;;;;;1999.90;999.90;;;8.00;99.90;;;;;;5043265;28;20176;-82
2021/05/28 03:18:55;;;;;;;1999.90;999.90;;;7.90;99.90;;;;;;5043222;28;20616;-82
2021/05/28 03:21:38;;;;;;;1999.90;999.90;;;7.80;99.90;;;;;;5043514;28;20175;-82
2021/05/28 03:24:04;;;;;;;1999.90;999.90;;;7.80;99.90;;;;;;5043388;28;20168;-82
2021/05/28 03:26:31;;;;;;;1999.90;999.90;;;7.80;99.90;;;;;;5043201;28;20191;-82
2021/05/28 03:28:58;;;;;;;1999.90;999.90;;;7.80;99.90;;;;;;5042824;28;20212;-82
2021/05/28 03:31:24;;;;;;;1999.90;999.90;;;7.70;99.90;;;;;;5043588;28;20193;-82
2021/05/28 03:33:50;;;;;;;1999.90;999.90;;;7.70;99.90;;;;;;5024250;28;20271;-82
2021/05/28 03:36:17;;;;;;;1999.90;999.90;;;7.70;99.90;;;;;;5024714;28;20264;-82
2021/05/28 03:38:44;;;;;;;1999.90;999.90;;;7.70;99.90;;;;;;5042878;28;20231;-82
2021/05/28 03:41:11;;;;;;;1999.90;999.90;;;7.70;99.90;;;;;;5042527;28;20188;-82
2021/05/28 03:43:36;;;;;;;1999.90;999.90;;;7.70;99.90;;;;;;5042732;28;20165;-82
2021/05/28 03:46:05;;;;;;;1999.90;999.90;;;7.70;99.90;;;;;;5042644;28;20192;-82
2021/05/28 03:48:31;;;;;;;1999.90;999.90;;;7.80;99.90;;;;;;5041951;28;20268;-82
2021/05/28 03:50:57;;;;;;;1999.90;999.90;;;7.90;99.90;;;;;;5042422;28;20161;-82
2021/05/28 03:53:23;;;;;;;1999.90;999.90;;;8.10;99.90;;;;;;5042302;28;20165;-82
2021/05/28 03:55:48;;;;;;;1999.90;999.90;;;8.20;99.90;;;;;;5042644;28;20613;-82
2021/05/28 03:58:14;;;;;;;1999.90;999.90;;;8.30;99.90;;;;;;5043194;28;20191;-82
2021/05/28 04:00:40;;;;;;;1999.90;999.90;;;8.40;99.90;;;;;;5024402;28;20212;-82
2021/05/28 04:03:06;;;;;;;1999.90;999.90;;;8.40;99.90;;;;;;5041646;28;20405;-82
2021/05/28 04:05:33;;;;;;;1999.90;999.90;;;8.50;99.90;;;;;;5041670;28;20165;-82
2021/05/28 04:07:59;;;;;;;1999.90;999.90;;;8.40;99.90;;;;;;5041568;28;20265;-82
2021/05/28 04:10:25;;;;;;;1999.90;999.90;;;8.40;99.90;;;;;;5023867;28;20177;-82
2021/05/28 04:12:54;;;;;;;1999.90;999.90;;;8.30;99.90;;;;;;5041617;28;20157;-82
2021/05/28 04:15:20;;;;;;;1999.90;999.90;;;8.30;99.90;;;;;;5023759;28;20165;-82
2021/05/28 04:17:45;;;;;;;1999.90;999.90;;;8.40;99.90;;;;;;5041522;28;20207;-82
2021/05/28 04:20:12;;;;;;;1999.90;999.90;;;8.50;99.90;;;;;;5041222;28;20411;-82
2021/05/28 04:22:38;;;;;;;1999.90;999.90;;;8.60;99.90;;;;;;5042550;28;20161;-82
2021/05/28 04:25:04;;;;;;;1999.90;999.90;;;8.60;99.90;;;;;;5041555;28;20172;-82
2021/05/28 04:27:30;;;;;;;1999.90;999.90;;;8.70;99.90;;;;;;5041651;28;20471;-82
2021/05/28 04:29:55;;;;;;;1999.90;999.90;;;8.70;99.90;;;;;;5041484;28;20165;-82
2021/05/28 04:32:21;;;;;;;1999.90;999.90;;;8.70;99.90;;;;;;5041973;28;20165;-82
2021/05/28 04:34:47;;;;;;;1999.90;999.90;;;8.80;99.90;;;;;;5040839;28;20192;-82
2021/05/28 04:37:12;;;;;;;1999.90;999.90;;;8.90;99.90;;;;;;5040849;28;20165;-82
2021/05/28 04:39:38;;;;;;;1999.90;999.90;;;9.10;99.90;;;;;;5041578;28;20189;-82
2021/05/28 04:42:07;;;;;;;1999.90;999.90;;;9.20;99.90;;;;;;5042406;28;20552;-82
2021/05/28 04:44:32;;;;;;;1999.90;999.90;;;9.40;99.90;;;;;;5041821;28;20165;-82
2021/05/28 04:46:58;;;;;;;1999.90;999.90;;;9.60;99.90;;;;;;5024109;28;20185;-82
2021/05/28 04:49:24;;;;;;;1999.90;999.90;;;9.70;99.90;;;;;;5041684;28;20208;-82
2021/05/28 04:51:50;;;;;;;1999.90;999.90;;;9.90;99.90;;;;;;5040430;28;20173;-82
2021/05/28 04:54:17;;;;;;;1999.90;999.90;;;10.10;99.90;;;;;;5023726;28;20169;-82
2021/05/28 04:56:43;;;;;;;1999.90;999.90;;;10.20;99.90;;;;;;5042061;28;20233;-82
2021/05/28 04:59:08;;;;;;;1999.90;999.90;;;10.30;99.90;;;;;;5042969;28;20221;-82
2021/05/28 05:01:34;;;;;;;1999.90;999.90;;;10.40;99.90;;;;;;5007301;28;1115183;-82
2021/05/28 05:04:00;;;;;;;1999.90;999.90;;;10.50;99.90;;;;;;5046756;28;20173;-82
2021/05/28 05:06:25;;;;;;;1999.90;999.90;;;10.60;99.90;;;;;;5045605;28;20189;-82
2021/05/28 05:08:51;;;;;;;1999.90;999.90;;;10.70;99.90;;;;;;5045713;28;20272;-82
2021/05/28 05:11:17;;;;;;;1999.90;999.90;;;10.80;99.90;;;;;;5028250;28;20193;-82
2021/05/28 05:13:43;;;;;;;1999.90;999.90;;;10.80;99.90;;;;;;5029151;28;20605;-82
2021/05/28 05:16:08;;;;;;;1999.90;999.90;;;10.90;99.90;;;;;;5047044;28;20420;-82
2021/05/28 05:18:34;;;;;;;1999.90;999.90;;;10.90;99.90;;;;;;5046268;28;20193;-82
2021/05/28 05:20:59;;;;;;;1999.90;999.90;;;10.90;99.90;;;;;;5046982;28;20169;-82
2021/05/28 05:23:25;;;;;;;1999.90;999.90;;;10.90;99.90;;;;;;5046897;28;20173;-82
2021/05/28 05:25:51;;;;;;;1999.90;999.90;;;10.90;99.90;;;;;;5047507;28;20174;-82
2021/05/28 05:28:16;;;;;;;1999.90;999.90;;;10.90;99.90;;;;;;5049196;28;20189;-82
2021/05/28 05:30:42;;;;;;;1999.90;999.90;;;10.80;99.90;;;;;;5031405;28;20170;-82
2021/05/28 05:33:08;;;;;;;1999.90;999.90;;;10.80;99.90;;;;;;5046849;28;20211;-82
2021/05/28 05:35:34;;;;;;;1999.90;999.90;;;10.80;99.90;;;;;;5047389;28;20166;-82
2021/05/28 05:38:07;;;;;;;1999.90;999.90;;;10.80;99.90;;;;;;5047315;28;20189;-82
2021/05/28 05:40:34;;;;;;;1999.90;999.90;;;10.80;99.90;;;;;;5047759;28;20168;-82
2021/05/28 05:42:59;;;;;;;1999.90;999.90;;;10.70;99.90;;;;;;5048146;28;20153;-82
2021/05/28 05:45:25;;;;;;;1999.90;999.90;;;10.70;99.90;;;;;;5048761;28;20176;-82
2021/05/28 05:47:51;;;;;;;1999.90;999.90;;;10.80;99.90;;;;;;5030383;28;20205;-82
2021/05/28 05:50:16;;;;;;;1999.90;999.90;;;10.70;99.90;;;;;;5047656;28;20159;-82
2021/05/28 05:52:42;;;;;;;1999.90;999.90;;;10.70;99.90;;;;;;5047525;28;20529;-82
2021/05/28 05:55:08;;;;;;;1999.90;999.90;;;10.80;99.90;;;;;;5030420;28;20165;-82
2021/05/28 05:57:34;;;;;;;1999.90;999.90;;;10.70;99.90;;;;;;5047242;28;20169;-82
2021/05/28 06:00:03;;;;;;;1999.90;999.90;;;10.80;99.90;;;;;;5120040;22;20273;-84
2021/05/28 06:02:32;;;;;;;1999.90;999.90;;;10.80;99.90;;;;;;5050137;28;20227;-84
2021/05/28 06:05:10;;;;;;;1999.90;999.90;;;10.80;99.90;;;;;;5033311;28;20172;-84
2021/05/28 06:07:36;;;;;;;1999.90;999.90;;;10.80;99.90;;;;;;5032565;28;20193;-83
2021/05/28 06:10:03;;;;;;;1999.90;999.90;;;10.80;99.90;;;;;;5031741;28;20166;-84
2021/05/28 06:12:28;;;;;;;1999.90;999.90;;;10.90;99.90;;;;;;5050176;28;20244;-84
2021/05/28 06:14:54;;;;;;;1999.90;999.90;;;10.90;99.90;;;;;;5049568;28;20165;-84
2021/05/28 06:17:19;;;;;;;1999.90;999.90;;;10.90;99.90;;;;;;5049869;28;20179;-84
2021/05/28 06:19:46;;;;;;;1999.90;999.90;;;11.00;99.90;;;;;;5049887;28;20196;-84
2021/05/28 06:22:11;;;;;;;1999.90;999.90;;;11.10;99.90;;;;;;5048840;28;20187;-84
2021/05/28 06:24:37;;;;;;;1999.90;999.90;;;11.10;99.90;;;;;;5049368;28;20209;-83
2021/05/28 06:27:04;;;;;;;1999.90;999.90;;;11.20;99.90;;;;;;5049767;28;20189;-84
2021/05/28 06:29:29;;;;;;;1999.90;999.90;;;11.30;99.90;;;;;;5049100;28;20184;-84
2021/05/28 06:31:55;;;;;;;1999.90;999.90;;;11.40;99.90;;;;;;5049532;28;20165;-84
2021/05/28 06:34:21;;;;;;;1999.90;999.90;;;11.50;99.90;;;;;;5047454;28;20169;-83
2021/05/28 06:36:50;;;;;;;1999.90;999.90;;;11.40;99.90;;;;;;5046791;28;20169;-81
2021/05/28 06:39:24;;;;;;;1999.90;999.90;;;11.40;99.90;;;;;;5027784;28;20288;-83
2021/05/28 06:41:50;;;;;;;1999.90;999.90;;;11.40;99.90;;;;;;5045869;28;20188;-82
2021/05/28 06:44:24;;;;;;;1999.90;999.90;;;11.50;99.90;;;;;;5045615;28;20176;-83
2021/05/28 06:46:53;;;;;;;1999.90;999.90;;;11.60;99.90;;;;;;5030016;28;20201;-83
2021/05/28 06:49:20;;;;;;;1999.90;999.90;;;11.80;99.90;;;;;;5044617;28;20188;-81
2021/05/28 06:51:47;;;;;;;1999.90;999.90;;;11.80;99.90;;;;;;5045111;28;20256;-81
2021/05/28 06:54:13;;;;;;;1999.90;999.90;;;11.90;99.90;;;;;;5044966;28;20157;-82
2021/05/28 06:56:40;;;;;;;1999.90;999.90;;;12.10;99.90;;;;;;5046938;28;20174;-83
2021/05/28 06:59:10;;;;;;;1999.90;999.90;;;12.20;99.90;;;;;;5027119;28;20228;-81
2021/05/28 07:01:36;;;;;;;1999.90;999.90;;;12.30;99.90;;;;;;5044440;28;20197;-82
2021/05/28 07:04:03;;;;;;;1999.90;999.90;;;12.30;99.90;;;;;;5026445;28;20165;-83
2021/05/28 07:06:30;;;;;;;1999.90;999.90;;;12.30;99.90;;;;;;5046007;28;20204;-81
2021/05/28 07:08:56;;;;;;;1999.90;999.90;;;12.30;99.90;;;;;;5046035;28;20272;-84
2021/05/28 07:11:23;;;;;;;1999.90;999.90;;;12.30;99.90;;;;;;5047557;28;20179;-83
2021/05/28 07:13:49;;;;;;;1999.90;999.90;;;12.20;99.90;;;;;;5042688;28;20173;-83
2021/05/28 07:16:14;;;;;;;1999.90;999.90;;;12.20;99.90;;;;;;5028931;28;20169;-83
2021/05/28 07:18:40;;;;;;;1999.90;999.90;;;12.20;99.90;;;;;;5048666;28;20200;-84
2021/05/28 07:21:06;;;;;;;1999.90;999.90;;;12.20;99.90;;;;;;5044474;28;20162;-83
2021/05/28 07:23:32;;;;;;;1999.90;999.90;;;12.30;99.90;;;;;;5045235;28;20411;-84
2021/05/28 07:26:00;;;;;;;1999.90;999.90;;;12.30;99.90;;;;;;5045260;28;20439;-82
2021/05/28 07:28:27;;;;;;;1999.90;999.90;;;12.20;99.90;;;;;;5028582;28;20189;-82
2021/05/28 07:30:53;;;;;;;1999.90;999.90;;;12.20;99.90;;;;;;5044524;28;20645;-81
2021/05/28 07:33:19;;;;;;;1999.90;999.90;;;12.20;99.90;;;;;;5043081;28;20168;-82
2021/05/28 07:35:45;;;;;;;1999.90;999.90;;;12.20;99.90;;;;;;5041277;28;20656;-82
2021/05/28 07:38:10;;;;;;;1999.90;999.90;;;12.20;99.90;;;;;;5041039;28;20189;-81
2021/05/28 07:40:37;;;;;;;1999.90;999.90;;;12.20;99.90;;;;;;5042781;28;20396;-81
2021/05/28 07:43:03;;;;;;;1999.90;999.90;;;12.20;99.90;;;;;;5042196;28;20161;-81
2021/05/28 07:45:29;;;;;;;1999.90;999.90;;;12.30;99.90;;;;;;5045108;28;20165;-81
2021/05/28 07:47:58;;;;;;;1999.90;999.90;;;12.30;99.90;;;;;;5040749;28;20825;-83
2021/05/28 07:50:26;;;;;;;1999.90;999.90;;;12.40;99.90;;;;;;5044990;28;20169;-84
2021/05/28 07:52:52;;;;;;;1999.90;999.90;;;12.50;99.90;;;;;;5032102;28;20173;-83
2021/05/28 07:55:19;;;;;;;1999.90;999.90;;;12.50;99.90;;;;;;5049685;28;20553;-84
2021/05/28 07:57:44;;;;;;;1999.90;999.90;;;12.70;99.90;;;;;;5049735;28;20189;-84
2021/05/28 08:00:11;;;;;;;1999.90;999.90;;;12.80;99.90;;;;;;5049435;28;20208;-84
2021/05/28 08:02:36;;;;;;;1999.90;999.90;;;12.90;99.90;;;;;;5049121;28;20153;-84
2021/05/28 08:05:03;;;;;;;1999.90;999.90;;;13.00;99.90;;;;;;5049294;28;20203;-84
2021/05/28 08:07:29;;;;;;;1999.90;999.90;;;13.20;99.90;;;;;;5032322;28;20189;-83
2021/05/28 08:09:55;;;;;;;1999.90;999.90;;;13.30;99.90;;;;;;5049737;28;20413;-84
2021/05/28 08:12:20;;;;;;;1999.90;999.90;;;13.50;99.90;;;;;;5049342;28;20560;-84
2021/05/28 08:14:46;;;;;;;1999.90;999.90;;;13.60;99.90;;;;;;5049313;28;20166;-84
2021/05/28 08:17:12;;;;;;;1999.90;999.90;;;13.70;99.90;;;;;;5048511;28;20169;-83
2021/05/28 08:19:37;;;;;;;1999.90;999.90;;;13.80;99.90;;;;;;5049356;28;20185;-84
2021/05/28 08:22:03;;;;;;;1999.90;999.90;;;13.80;99.90;;;;;;5048952;28;20233;-84
2021/05/28 08:24:29;;;;;;;1999.90;999.90;;;13.80;99.90;;;;;;5048483;28;20169;-84
2021/05/28 08:26:57;;;;;;;1999.90;999.90;;;13.80;99.90;;;;;;5047155;28;20478;-84
2021/05/28 08:29:23;;;;;;;1999.90;999.90;;;13.90;99.90;;;;;;5047982;28;20244;-83
2021/05/28 08:31:49;;;;;;;1999.90;999.90;;;13.90;99.90;;;;;;5046796;28;20157;-84
2021/05/28 08:34:14;;;;;;;1999.90;999.90;;;13.90;99.90;;;;;;5049281;28;20165;-84
2021/05/28 08:36:40;;;;;;;1999.90;999.90;;;13.90;99.90;;;;;;5050751;28;20181;-84
2021/05/28 08:39:06;;;;;;;1999.90;999.90;;;13.80;99.90;;;;;;5049502;28;20185;-83
2021/05/28 08:41:34;;;;;;;1999.90;999.90;;;13.80;99.90;;;;;;5048771;28;20176;-84
2021/05/28 08:44:00;;;;;;;1999.90;999.90;;;13.90;99.90;;;;;;5049296;28;20403;-84
2021/05/28 08:46:26;;;;;;;1999.90;999.90;;;14.00;99.90;;;;;;5048906;28;20443;-83
2021/05/28 08:48:55;;;;;;;1999.90;999.90;;;14.00;99.90;;;;;;5050024;28;20420;-84
2021/05/28 08:51:21;;;;;;;1999.90;999.90;;;14.20;99.90;;;;;;5049322;28;20403;-84
2021/05/28 08:53:47;;;;;;;1999.90;999.90;;;14.30;99.90;;;;;;5031590;28;20923;-84
2021/05/28 08:56:15;;;;;;;1999.90;999.90;;;14.50;99.90;;;;;;5050424;28;20191;-84
2021/05/28 08:58:41;;;;;;;1999.90;999.90;;;14.60;99.90;;;;;;5030019;28;20193;-84
2021/05/28 09:01:08;;;;;;;1999.90;999.90;;;14.60;99.90;;;;;;5048490;28;20430;-84
2021/05/28 09:03:36;;;;;;;1999.90;999.90;;;14.70;99.90;;;;;;5048060;28;20219;-84
2021/05/28 09:06:18;;;;;;;1999.90;999.90;;;14.80;99.90;;;;;;5048121;28;20443;-83
2021/05/28 09:09:30;;;;;;;1999.90;999.90;;;14.80;99.90;;;;;;5072629;23;20502;-84
2021/05/28 09:15:52;;;;;;;1999.90;999.90;;;15.10;99.90;;;;;;5048113;28;20375;-84
2021/05/28 09:19:02;;;;;;;1999.90;999.90;;;15.30;99.90;;;;;;5015575;28;20450;-84
2021/05/28 09:22:41;;;;;;;;;;;;;;;;;;;;;
2021/05/28 09:24:59;;;;;;;1999.90;999.90;;;15.60;99.90;;;;;;5039769;28;20466;-84
2021/05/28 09:27:54;;;;;;;1999.90;999.90;;;15.60;99.90;;;;;;5046446;28;20448;-83
2021/05/28 09:31:23;;;;;;;;;;;;;;;;;;;;;
2021/05/28 09:35:02;;;;;;;;;;;;;;;;;;;;;
2021/05/28 09:44:12;;;;;;;;;;;;;;;;;;;;;
2021/05/28 09:47:54;;;;;;;1999.90;999.90;;;15.90;99.90;;;;;;4891782;29;20552;-83
2021/05/28 10:01:25;;;;;;;;;;;;;;;;;;;;;
2021/05/28 10:08:31;;;;;;;1999.90;999.90;;;17.50;99.90;;;;;;4906877;29;20480;-84
2021/05/28 10:12:10;;;;;;;;;;;;;;;;;;;;;
2021/05/28 10:15:02;;;;;;;1999.90;999.90;;;17.20;99.10;;;;;;4929104;29;21023;-84
2021/05/28 10:40:52;;;;;;;;;;;;;;;;;;;;;
2021/05/28 10:50:45;;;;;;;1999.90;999.90;;;20.10;13.00;;;;;;4956571;29;20433;-84
2021/05/28 11:00:54;;;;;;;1999.90;999.90;;;19.70;49.70;;;;;;4963500;29;20830;-84
2021/05/28 11:04:01;;;;;;;1999.90;999.90;;;19.80;30.00;;;;;;4988047;28;20547;-84
2021/05/28 11:06:31;;;;;;;1999.90;999.90;;;20.10;29.90;;;;;;5023307;28;20515;-84
2021/05/28 11:15:16;;;;;;;1999.90;999.90;;;21.20;18.90;;;;;;5011866;28;21038;-84
2021/05/28 11:20:39;;;;;;;1999.90;999.90;;;21.60;9.60;;;;;;5042050;28;20981;-84
2021/05/28 11:23:40;;;;;;;1999.90;999.90;;;21.90;9.10;;;;;;5024758;28;20906;-84
2021/05/28 11:26:56;;;;;;;1999.90;999.90;;;21.30;3.20;;;;;;5024976;28;20438;-84
2021/05/28 11:29:30;;;;;;;1999.90;999.90;;;20.70;3.00;;;;;;5037880;28;20473;-84
2021/05/28 11:32:00;;;;;;;1999.90;999.90;;;21.40;2.60;;;;;;5041970;28;20905;-84
2021/05/28 11:35:11;;;;;;;1999.90;999.90;;;21.90;7.90;;;;;;5042010;28;20403;-84
2021/05/28 11:37:45;;;;;;;1999.90;999.90;;;22.60;8.40;;;;;;5042561;28;20427;-84
2021/05/28 11:40:23;;;;;;;1999.90;999.90;;;23.20;7.20;;;;;;5040018;28;20432;-84
2021/05/28 11:43:17;;;;;;;1999.90;999.90;;;22.80;1.00;;;;;;5043131;28;20376;-85
2021/05/28 11:57:13;;;;;;;1999.90;999.90;;;21.90;1.00;;;;;;4949177;29;20416;-84
2021/05/28 12:02:56;;;;;;;1999.90;999.90;;;20.70;1.00;;;;;;5152785;22;20492;-81
2021/05/28 12:10:15;;;;;;;1999.90;999.90;;;19.90;2.10;;;;;;5078680;28;20428;-81
2021/05/28 12:12:50;;;;;;;1999.90;999.90;;;19.70;5.10;;;;;;5074591;28;20395;-82
2021/05/28 12:16:21;;;;;;;1999.90;999.90;;;19.60;6.70;;;;;;5033905;28;20921;-81
2021/05/28 12:18:47;;;;;;;1999.90;999.90;;;19.70;99.90;;;;;;4992829;28;20848;-82
2021/05/28 12:21:23;;;;;;;1999.90;999.90;;;20.10;99.90;;;;;;4998894;28;20493;-81
2021/05/28 12:27:57;;;;;;;1999.90;999.90;;;20.40;1.00;;;;;;5056492;28;20449;-82
2021/05/28 12:30:50;;;;;;;;;;;;;;;;;;;;;
2021/05/28 12:34:06;;;;;;;1999.90;999.90;;;20.70;1.00;;;;;;5069074;28;20491;-82
2021/05/28 12:37:13;;;;;;;1999.90;999.90;;;20.30;1.00;;;;;;5079552;28;20406;-82
2021/05/28 12:40:11;;;;;;;1999.90;999.90;;;20.30;1.00;;;;;;5079803;28;20430;-82
2021/05/28 12:47:12;;;;;;;;;;;;;;;;;;;;;
2021/05/28 12:54:05;;;;;;;1999.90;999.90;;;21.20;1.00;;;;;;5032687;28;20413;-82
2021/05/28 13:00:24;;;;;;;1999.90;999.90;;;21.50;1.00;;;;;;4997726;28;20463;-82
2021/05/28 13:03:12;;;;;;;1999.90;999.90;;;22.10;1.00;;;;;;4978642;28;20452;-82
2021/05/28 13:12:53;;;;;;;1999.90;999.90;;;21.60;1.00;;;;;;4964690;28;20440;-82
2021/05/28 13:16:05;;;;;;;1999.90;999.90;;;21.80;1.00;;;;;;4962712;28;20480;-82
2021/05/28 13:19:22;;;;;;;1999.90;999.90;;;21.80;1.00;;;;;;4931177;28;20435;-81
2021/05/28 13:23:16;;;;;;;1999.90;999.90;;;21.70;1.00;;;;;;5079752;28;20440;-81
2021/05/28 13:25:42;;;;;;;1999.90;999.90;;;21.50;1.00;;;;;;5072829;28;20752;-81
2021/05/28 13:28:51;;;;;;;1999.90;999.90;;;21.10;1.00;;;;;;5078544;28;20459;-81
2021/05/28 13:31:51;;;;;;;1999.90;999.90;;;21.00;1.00;;;;;;5079457;28;20405;-81
2021/05/28 13:35:10;;;;;;;1999.90;999.90;;;21.20;1.00;;;;;;5078255;28;20470;-81
2021/05/28 13:40:52;;;;;;;1999.90;999.90;;;21.60;1.90;;;;;;5080187;28;20436;-82
2021/05/28 13:43:59;;;;;;;;;;;;;;;;;;;;;
2021/05/28 13:47:04;;;;;;;1999.90;999.90;;;21.70;1.00;;;;;;5080121;28;20512;-81
2021/05/28 13:53:19;;;;;;;1999.90;999.90;;;21.40;1.00;;;;;;5037078;28;20409;-81
2021/05/28 13:56:15;;;;;;;1999.90;999.90;;;21.20;1.00;;;;;;5078912;28;20409;-81
2021/05/28 13:58:53;;;;;;;1999.90;999.90;;;21.30;1.00;;;;;;5078890;28;20437;-81
2021/05/28 14:01:39;;;;;;;1999.90;999.90;;;21.40;1.00;;;;;;5078109;28;20443;-81
2021/05/28 14:04:28;;;;;;;1999.90;999.90;;;21.40;1.00;;;;;;5077762;28;20434;-81
2021/05/28 14:07:46;;;;;;;1999.90;999.90;;;21.20;1.00;;;;;;5078102;28;20472;-81
2021/05/28 14:10:55;;;;;;;1999.90;999.90;;;21.40;1.00;;;;;;5000336;28;20428;-81
2021/05/28 14:13:37;;;;;;;1999.90;999.90;;;22.10;1.00;;;;;;4992310;28;20423;-81
2021/05/28 14:16:34;;;;;;;1999.90;999.90;;;22.60;1.00;;;;;;5073152;28;20399;-81
2021/05/28 14:22:20;;;;;;;1999.90;999.90;;;21.90;1.00;;;;;;5078966;28;20390;-81
2021/05/28 14:25:35;;;;;;;1999.90;999.90;;;21.60;1.00;;;;;;5076822;28;20405;-81
2021/05/28 14:28:53;;;;;;;1999.90;999.90;;;21.10;1.00;;;;;;5077315;28;20465;-81
2021/05/28 14:31:46;;;;;;;1999.90;999.90;;;21.00;1.00;;;;;;5074334;28;20955;-81
2021/05/28 14:38:08;;;;;;;1999.90;999.90;;;20.60;1.00;;;;;;5034657;28;20410;-81
2021/05/28 14:40:55;;;;;;;;;;;;;;;;;;;;;
2021/05/28 14:43:44;;;;;;;1999.90;999.90;;;21.00;1.00;;;;;;5079140;28;20501;-81
2021/05/28 14:46:53;;;;;;;1999.90;999.90;;;21.50;1.00;;;;;;5078913;28;20462;-81
2021/05/28 14:50:00;;;;;;;1999.90;999.90;;;21.90;1.00;;;;;;5066863;28;20439;-81
2021/05/28 14:52:53;;;;;;;1999.90;999.90;;;22.30;1.00;;;;;;5072177;28;20405;-81
2021/05/28 14:55:57;;;;;;;1999.90;999.90;;;22.50;1.00;;;;;;5077500;28;20434;-81
2021/05/28 14:59:02;;;;;;;;;;;;;;;;;;;;;